Latest Weather Observations for Port Augusta

IDS60801

Issued at 9:21 pm CDT Thursday 17 January 2019 (issued every 10 minutes, with the page automatically refreshed every 10 minutes)

About weather observations | Map of weather stations | Latest weather observations for SA | Other Formats
Station Details ID: 018201 Name: PORT AUGUSTA AERO Lat: -32.51 Lon: 137.72 Height: 13.97 m
Data from the previous 72 hours. | See also: Recent months at Port Augusta
Date/Time
CDT
Temp
°C
App
Temp
°C
Dew
Point
°C
Rel
Hum
%
Delta-T
°C
Wind Press
QNH
hPa
Press
MSL
hPa
Rain since
9am
mm
Dir  Spd
km/h
Gust
km/h
Spd
kts
Gust
kts
17/09:02pm 31.7 25.7 14.4 35 10.6 SSE 39 59 21 32 1005.4 1005.4 0.0
17/09:00pm 31.8 25.4 14.4 34 10.6 SSE 41 54 22 29 1005.5 1005.5 0.0
17/08:39pm 32.5 25.3 13.2 31 11.6 SSE 43 61 23 33 1005.1 1005.1 0.0
17/08:30pm 32.8 25.2 12.4 29 12.2 SSE 44 57 24 31 1004.8 1004.8 0.0
17/08:03pm 32.8 24.1 12.4 29 12.1 SSE 50 69 27 37 1004.5 1004.5 0.0
17/08:00pm 32.8 24.1 12.4 29 12.1 SSE 50 67 27 36 1004.6 1004.6 0.0
17/07:32pm 33.0 24.9 12.1 28 12.4 SSE 46 72 25 39 1004.3 1004.3 0.0
17/07:30pm 33.1 25.0 12.1 27 12.5 SSE 46 63 25 34 1004.3 1004.3 0.0
17/07:06pm 33.8 24.2 12.2 27 12.9 S 54 74 29 40 1004.3 1004.3 0.0
17/07:03pm 33.8 23.7 11.6 26 13.1 S 56 74 30 40 1004.3 1004.3 0.0
17/07:00pm 33.7 23.3 11.5 26 13.1 S 57 74 31 40 1004.1 1004.1 0.0
17/06:52pm 34.0 23.9 11.8 26 13.1 S 56 80 30 43 1003.9 1003.9 0.0
17/06:30pm 34.3 24.5 12.6 27 13.1 SSE 56 74 30 40 1004.1 1004.1 0.0
17/06:23pm 34.2 25.7 12.0 26 13.2 SSE 48 70 26 38 1004.2 1004.2 0.0
17/06:11pm 34.7 26.9 13.0 27 13.1 SE 46 59 25 32 1004.4 1004.4 0.0
17/06:00pm 34.5 24.5 12.8 27 13.1 SE 57 72 31 39 1003.6 1003.6 0.0
17/05:54pm 34.8 24.9 13.0 26 13.2 SE 57 72 31 39 1003.5 1003.5 0.0
17/05:51pm 34.7 25.0 13.0 27 13.1 SE 56 72 30 39 1003.4 1003.4 0.0
17/05:35pm 37.9 30.1 11.1 20 15.9 SSE 43 61 23 33 1003.3 1003.3 0.0
17/05:30pm 38.6 30.5 10.9 19 16.5 SSE 44 61 24 33 1003.4 1003.4 0.0
17/05:21pm 37.6 31.3 12.3 22 15.3 SSW 37 57 20 31 1003.0 1003.0 0.0
17/05:18pm 38.3 32.5 11.4 20 16.1 WSW 33 56 18 30 1003.1 1003.1 0.0
17/05:16pm 39.1 33.9 12.8 21 16.1 W 32 56 17 30 1002.8 1002.8 0.0
17/05:00pm 43.9 36.9 4.0 9 22.0 W 30 39 16 21 1002.6 1002.6 0.0
17/04:30pm 43.7 36.3 3.9 9 22.0 WNW 32 46 17 25 1002.4 1002.4 0.0
17/04:00pm 44.4 36.9 4.4 9 22.2 NW 33 52 18 28 1002.6 1002.6 0.0
17/03:57pm 45.2 38.8 5.0 9 22.6 NW 28 46 15 25 1002.5 1002.5 0.0
17/03:30pm 45.1 38.6 4.9 9 22.7 WNW 28 43 15 23 1002.9 1002.9 0.0
17/03:19pm 45.1 39.0 4.9 9 22.6 WNW 26 41 14 22 1002.9 1002.9 0.0
17/03:00pm 44.3 39.2 5.8 10 21.9 WNW 22 30 12 16 1003.2 1003.2 0.0
17/02:30pm 43.0 38.5 6.2 11 20.9 WNW 19 24 10 13 1003.6 1003.6 0.0
17/02:00pm 44.1 38.9 5.7 10 21.7 WNW 22 35 12 19 1004.1 1004.1 0.0
17/01:30pm 44.4 40.5 7.3 11 21.5 NW 17 28 9 15 1004.4 1004.4 0.0
17/01:00pm 42.9 38.7 7.4 12 20.5 NW 19 28 10 15 1004.7 1004.7 0.0
17/12:30pm 42.8 38.7 8.5 13 20.1 NW 20 26 11 14 1005.0 1005.0 0.0
17/12:00pm 42.7 38.4 9.5 14 19.7 NW 22 33 12 18 1005.3 1005.3 0.0
17/11:30am 41.5 38.5 10.6 16 18.6 WNW 17 24 9 13 1005.5 1005.5 0.0
17/11:00am 40.5 38.0 9.8 16 18.1 WNW 13 19 7 10 1005.4 1005.4 0.0
17/10:30am 39.1 37.2 10.4 18 17.0 WNW 11 17 6 9 1005.5 1005.5 0.0
17/10:00am 37.1 36.7 11.1 21 15.4 S 4 9 2 5 1005.6 1005.6 0.0
17/09:30am 35.8 34.2 11.4 23 14.5 ESE 11 17 6 9 1005.9 1005.9 0.0
17/09:00am 34.3 31.9 11.4 25 13.5 ESE 15 22 8 12 1006.1 1006.1 0.0
17/08:30am 32.9 29.9 12.0 28 12.4 SE 19 26 10 14 1006.3 1006.3 0.0
17/08:00am 30.3 28.4 13.1 34 10.2 SE 15 20 8 11 1006.3 1006.3 0.0
17/07:30am 29.7 27.3 12.6 35 10.1 SE 17 24 9 13 1006.1 1006.1 0.0
17/07:00am 28.9 28.7 13.6 39 9.1 SSE 7 13 4 7 1006.1 1006.1 0.0
17/06:30am 28.9 25.2 13.9 39 9.0 SE 26 39 14 21 1005.8 1005.8 0.0
17/06:00am 27.0 24.7 16.6 53 6.5 ESE 24 33 13 18 1005.6 1005.6 0.0
17/05:30am 26.7 23.4 16.9 55 6.1 ESE 30 39 16 21 1005.8 1005.8 0.0
17/05:16am 26.8 22.8 16.7 54 6.3 SE 33 52 18 28 1005.7 1005.7 0.0
17/05:00am 27.3 22.0 16.3 51 6.8 SE 39 50 21 27 1005.4 1005.4 0.0
17/04:49am 27.6 22.0 15.6 48 7.3 SE 39 57 21 31 1005.2 1005.2 0.0
17/04:30am 27.1 22.2 16.4 52 6.6 SE 37 50 20 27 1005.7 1005.7 0.0
17/04:00am 27.7 24.5 16.3 49 7.1 SE 28 41 15 22 1006.1 1006.1 0.0
17/03:30am 28.6 27.1 16.2 47 7.7 ESE 19 30 10 16 1005.8 1005.8 0.0
17/03:00am 27.2 26.5 19.5 62 5.0 ESE 22 32 12 17 1005.3 1005.3 0.0
17/02:30am 27.6 27.1 18.6 58 5.8 ESE 19 28 10 15 1005.6 1005.6 0.0
17/02:00am 29.1 27.5 16.6 46 7.8 SE 20 28 11 15 1006.0 1006.0 0.0
17/01:30am 32.3 30.7 11.5 28 12.2 SE 11 15 6 8 1005.9 1005.9 0.0
17/01:00am 29.9 29.2 13.2 36 9.9 ESE 9 15 5 8 1005.8 1005.8 0.0
17/12:30am 29.6 28.5 14.2 39 9.3 SSE 13 20 7 11 1005.9 1005.9 0.0
17/12:00am 29.0 25.1 16.5 46 7.8 SE 32 43 17 23 1005.5 1005.5 0.0
 
Date/Time
CDT
Temp
°C
App
Temp
°C
Dew
Point
°C
Rel
Hum
%
Delta-T
°C
Wind Press
QNH
hPa
Press
MSL
hPa
Rain since
9am
mm
Dir  Spd
km/h
Gust
km/h
Spd
kts
Gust
kts
16/11:30pm 27.4 24.8 19.5 62 5.1 SE 32 43 17 23 1005.3 1005.3 0.0
16/11:00pm 28.0 26.0 20.0 61 5.2 SE 30 39 16 21 1005.5 1005.5 0.0
16/10:30pm 31.0 28.6 17.3 43 8.7 ESE 26 37 14 20 1005.6 1005.6 0.0
16/10:00pm 33.9 32.0 15.8 33 11.4 ESE 20 28 11 15 1005.8 1005.8 0.0
16/09:30pm 35.5 32.7 14.2 28 13.2 ESE 22 32 12 17 1005.7 1005.7 0.0
16/09:14pm 38.3 34.5 9.8 18 16.7 SE 20 33 11 18 1005.1 1005.1 0.0
16/09:00pm 38.5 36.3 6.3 14 17.9 SW 7 13 4 7 1004.9 1004.9 0.0
16/08:30pm 40.0 37.6 5.2 12 19.2 WSW 7 11 4 6 1004.9 1004.9 0.0
16/08:00pm 41.2 37.6 4.9 11 20.0 WNW 13 15 7 8 1005.1 1005.1 0.0
16/07:30pm 41.3 38.0 6.2 12 19.8 WNW 13 37 7 20 1004.8 1004.8 0.0
16/07:00pm 41.9 37.5 6.7 12 20.0 SE 19 24 10 13 1004.2 1004.2 0.0
16/06:30pm 40.0 34.4 10.3 17 17.7 SSE 30 37 16 20 1004.0 1004.0 0.0
16/06:26pm 39.9 35.1 10.2 17 17.6 SE 26 37 14 20 1003.9 1003.9 0.0
16/06:00pm 39.9 38.8 11.9 19 17.0 ESE 9 19 5 10 1004.1 1004.1 0.0
16/05:40pm 42.3 36.7 10.3 15 19.2 S 30 48 16 26 1003.5 1003.5 0.0
16/05:36pm 43.8 37.2 4.0 9 21.9 SSW 28 48 15 26 1003.1 1003.1 0.0
16/05:30pm 43.8 38.0 2.3 8 22.4 SW 22 30 12 16 1003.6 1003.6 0.0
16/05:00pm 44.5 38.8 2.8 8 22.7 SSW 22 32 12 17 1003.2 1003.2 0.0
16/04:30pm 43.9 40.0 6.9 11 21.3 SE 17 24 9 13 1003.6 1003.6 0.0
16/04:00pm 44.0 41.2 7.0 11 21.3 SE 11 19 6 10 1003.9 1003.9 0.0
16/03:30pm 43.6 39.9 8.0 12 20.8 ESE 17 20 9 11 1004.3 1004.3 0.0
16/03:00pm 43.2 40.4 9.9 14 19.9 SE 15 22 8 12 1004.7 1004.7 0.0
16/02:30pm 42.8 40.4 8.5 13 20.1 WSW 11 15 6 8 1005.4 1005.4 0.0
16/02:00pm 41.7 40.6 10.8 16 18.6 NNE 7 13 4 7 1006.0 1006.0 0.0
16/01:30pm 36.9 36.6 15.4 28 13.6 SE 11 15 6 8 1006.7 1006.7 0.0
16/01:00pm 34.5 34.3 16.8 34 11.3 SE 13 19 7 10 1007.2 1007.2 0.0
16/12:30pm 30.6 29.7 18.3 47 7.9 ESE 20 26 11 14 1007.8 1007.7 0.0
16/12:00pm 30.0 28.2 17.8 48 7.8 ESE 24 32 13 17 1008.1 1008.0 0.0
16/11:30am 28.2 26.2 18.3 55 6.3 ESE 26 32 14 17 1008.5 1008.4 0.0
16/11:00am 27.4 25.4 19.2 61 5.3 ESE 28 37 15 20 1008.6 1008.5 0.0
16/10:30am 27.9 27.3 19.7 61 5.3 ESE 22 33 12 18 1008.7 1008.6 0.0
16/10:00am 28.3 27.2 19.5 59 5.7 ESE 24 30 13 16 1008.6 1008.5 0.0
16/09:30am 30.2 29.3 18.3 49 7.7 ESE 20 24 11 13 1008.4 1008.3 0.0
16/09:00am 28.9 29.0 18.4 53 6.7 ESE 15 19 8 10 1008.2 1008.1 0.0
16/08:30am 28.7 29.4 18.8 55 6.4 ESE 13 17 7 9 1007.9 1007.8 0.0
16/08:00am 25.7 25.0 19.6 69 3.9 SE 22 32 12 17 1007.4 1007.4 0.0
16/07:30am 25.7 24.3 18.9 66 4.4 ESE 24 33 13 18 1006.9 1006.9 0.0
16/07:00am 26.4 25.0 16.6 55 6.1 SE 19 24 10 13 1006.8 1006.8 0.0
16/06:30am 26.6 25.8 14.0 46 7.5 SSE 11 13 6 7 1006.5 1006.5 0.0
16/06:00am 26.0 26.2 16.8 57 5.7 ESE 11 17 6 9 1006.1 1006.1 0.0
16/05:30am 26.0 25.6 16.3 55 6.0 ESE 13 20 7 11 1005.8 1005.8 0.0
16/05:00am 25.9 25.6 17.3 59 5.4 SE 15 24 8 13 1005.8 1005.8 0.0
16/04:30am 26.1 24.6 16.4 55 6.0 ESE 19 26 10 14 1005.6 1005.6 0.0
16/04:00am 26.2 25.5 17.3 58 5.6 SE 17 28 9 15 1006.4 1006.4 0.0
16/03:30am 26.3 25.1 17.4 58 5.6 ESE 20 30 11 16 1006.1 1006.1 0.0
16/03:00am 26.7 25.1 16.6 54 6.3 ESE 20 30 11 16 1006.0 1006.0 0.0
16/02:30am 26.4 25.8 17.5 58 5.6 ESE 17 20 9 11 1006.8 1006.8 0.0
16/02:00am 26.9 28.2 17.1 55 6.1 W 6 9 3 5 1007.9 1007.8 0.0
16/01:30am 27.0 24.4 17.8 57 5.8 SE 28 41 15 22 1007.1 1007.1 0.0
16/01:00am 28.2 25.1 16.5 49 7.3 SE 28 43 15 23 1007.0 1007.0 0.0
16/12:30am 29.7 26.4 15.0 40 9.0 SE 26 37 14 20 1007.2 1007.2 0.0
16/12:00am 32.1 29.9 13.3 31 11.3 SE 17 22 9 12 1007.1 1007.1 0.0
 
Date/Time
CDT
Temp
°C
App
Temp
°C
Dew
Point
°C
Rel
Hum
%
Delta-T
°C
Wind Press
QNH
hPa
Press
MSL
hPa
Rain since
9am
mm
Dir  Spd
km/h
Gust
km/h
Spd
kts
Gust
kts
15/11:30pm 31.2 30.8 15.2 38 9.9 SW 11 15 6 8 1007.1 1007.1 0.0
15/11:00pm 30.6 29.4 17.0 44 8.6 ESE 19 24 10 13 1006.9 1006.9 0.0
15/10:30pm 29.8 29.6 18.6 51 7.2 SE 17 24 9 13 1006.7 1006.7 0.0
15/10:00pm 30.0 29.6 18.8 51 7.2 SE 19 24 10 13 1006.4 1006.4 0.0
15/09:30pm 29.7 31.4 18.5 51 7.2 SSE 7 11 4 6 1006.4 1006.4 0.0
15/09:00pm 30.3 28.8 17.7 46 8.1 SE 22 35 12 19 1005.9 1005.9 0.0
15/08:30pm 30.5 28.6 18.6 49 7.7 SE 26 33 14 18 1005.7 1005.7 0.0
15/08:00pm 32.5 29.9 16.8 39 9.9 SE 26 33 14 18 1005.5 1005.5 0.0
15/07:30pm 36.5 32.2 12.0 23 14.7 SE 26 33 14 18 1005.4 1005.4 0.0
15/07:27pm 36.1 32.5 13.0 25 14.0 SE 24 33 13 18 1005.4 1005.4 0.0
15/07:00pm 41.3 33.4 -1.4 7 21.5 SSE 30 39 16 21 1005.4 1005.4 0.0
15/06:30pm 42.9 34.0 -2.3 6 22.7 SSE 35 44 19 24 1005.0 1005.0 0.0
15/06:00pm 42.4 32.6 -2.7 6 22.4 SSE 39 50 21 27 1005.2 1005.2 0.0
15/05:30pm 41.1 31.6 2.0 9 20.7 SSE 41 52 22 28 1005.2 1005.2 0.0
15/05:00pm 41.3 31.7 3.6 10 20.4 SSE 43 54 23 29 1005.3 1005.3 0.0
15/04:30pm 41.7 33.7 3.9 10 20.6 SE 35 50 19 27 1005.4 1005.4 0.0
15/04:00pm 43.1 35.2 6.3 11 20.9 SE 37 56 20 30 1005.4 1005.4 0.0
15/03:55pm 43.4 35.3 5.2 10 21.4 SE 37 57 20 31 1005.3 1005.3 0.0
15/03:52pm 43.1 37.0 9.9 14 19.8 SE 32 57 17 31 1004.9 1004.9 0.0
15/03:50pm 42.1 37.7 12.9 18 18.1 ESE 28 57 15 31 1004.8 1004.8 0.0
15/03:30pm 47.6 41.2 -4.5 4 26.1 WNW 20 30 11 16 1005.4 1005.4 0.0
15/03:00pm 46.6 40.1 -2.2 5 25.1 WNW 22 35 12 19 1005.6 1005.6 0.0
15/02:30pm 48.5 42.8 -0.9 5 26.1 NW 19 33 10 18 1005.9 1005.9 0.0
15/02:00pm 45.7 40.4 -0.3 6 24.1 W 17 28 9 15 1006.4 1006.4 0.0
15/01:30pm 45.5 40.2 -0.5 6 24.0 NNW 17 24 9 13 1007.0 1007.0 0.0
15/01:00pm 44.4 40.1 0.9 7 23.0 NW 13 22 7 12 1007.3 1007.3 0.0
15/12:30pm 42.8 38.6 1.6 8 21.9 NNW 13 20 7 11 1007.6 1007.6 0.0
15/12:00pm 41.3 37.4 3.6 10 20.4 N 13 20 7 11 1008.2 1008.1 0.0
15/11:30am 40.0 37.5 6.4 13 18.9 NE 9 13 5 7 1008.3 1008.2 0.0
15/11:00am 37.9 35.3 7.7 16 17.1 E 11 15 6 8 1008.4 1008.3 0.0
15/10:30am 35.9 33.9 8.7 19 15.5 E 9 13 5 7 1008.5 1008.4 0.0
15/10:00am 33.8 32.0 12.2 27 12.9 ESE 13 15 7 8 1008.6 1008.5 0.0
15/09:30am 31.1 29.2 14.3 36 10.2 ESE 17 20 9 11 1008.6 1008.5 0.0
15/09:00am 30.1 28.7 14.6 39 9.4 ESE 15 19 8 10 1008.7 1008.6 0.0
15/08:30am 30.7 31.8 13.5 35 10.3 CALM 0 0 0 0 1008.7 1008.6 0.0
15/08:00am 27.1 27.9 13.8 44 7.9 NW 2 6 1 3 1008.4 1008.3 0.0
15/07:30am 24.7 25.0 14.5 53 6.1 WNW 6 9 3 5 1008.2 1008.1 0.0
15/07:00am 22.8 24.8 15.9 65 4.2 CALM 0 6 0 3 1007.6 1007.6 0.0
15/06:30am 23.4 25.1 17.2 68 3.8 ESE 4 6 2 3 1007.4 1007.4 0.0
15/06:00am 23.8 24.8 17.8 69 3.8 SE 9 11 5 6 1007.2 1007.2 0.0
15/05:30am 24.7 24.8 18.4 68 4.0 SE 15 20 8 11 1006.9 1006.9 0.0
15/05:00am 24.6 24.8 17.6 65 4.4 ESE 13 17 7 9 1007.0 1007.0 0.0
15/04:30am 23.8 24.4 15.8 61 4.8 ESE 7 11 4 6 1006.9 1006.9 0.0
15/04:00am 24.3 24.2 15.0 56 5.6 ESE 9 11 5 6 1006.8 1006.8 0.0
15/03:30am 25.4 25.4 17.1 60 5.2 SE 13 17 7 9 1007.0 1007.0 0.0
15/03:00am 25.1 26.4 18.5 67 4.2 ESE 9 13 5 7 1007.4 1007.4 0.0
15/02:30am 26.3 25.7 15.7 52 6.5 SE 13 19 7 10 1007.6 1007.6 0.0
15/02:00am 26.2 25.3 15.9 53 6.3 SSE 15 20 8 11 1008.0 1007.9 0.0
15/01:30am 26.4 26.0 16.1 53 6.3 SE 13 17 7 9 1008.4 1008.3 0.0
15/01:00am 26.3 26.6 16.0 53 6.3 SE 9 13 5 7 1008.4 1008.3 0.0
15/12:30am 26.5 27.3 15.8 51 6.6 SE 6 9 3 5 1008.4 1008.3 0.0
15/12:00am 26.5 26.7 16.7 55 6.1 E 11 15 6 8 1008.5 1008.4 0.0
 
Date/Time
CDT
Temp
°C
App
Temp
°C
Dew
Point
°C
Rel
Hum
%
Delta-T
°C
Wind Press
QNH
hPa
Press
MSL
hPa
Rain since
9am
mm
Dir  Spd
km/h
Gust
km/h
Spd
kts
Gust
kts
14/11:30pm 28.8 27.8 14.6 42 8.6 ESE 13 19 7 10 1008.4 1008.3 0.0
14/11:00pm 28.1 28.8 15.7 46 7.6 ESE 6 11 3 6 1008.4 1008.3 0.0
14/10:30pm 28.0 28.6 16.9 51 7.0 SE 9 15 5 8 1008.2 1008.1 0.0
14/10:00pm 28.1 27.5 17.6 53 6.6 SE 17 24 9 13 1007.9 1007.8 0.0
14/09:30pm 29.9 27.6 14.0 37 9.6 SE 19 33 10 18 1007.5 1007.5 0.0

Other Formats:

Comma delimited format used in spreadsheet applications
http://www.bom.gov.au/fwo/IDS60801/IDS60801.95666.axf

JavaScript Object Notation format (JSON) in row-major order
http://www.bom.gov.au/fwo/IDS60801/IDS60801.95666.json